createdAt,value
2023-06-26T00:01:43.874Z,19.02
2023-06-26T00:04:22.601Z,19.01
2023-06-26T00:06:58.774Z,18.97
2023-06-26T00:09:32.807Z,18.95
2023-06-26T00:12:06.930Z,18.92
2023-06-26T00:14:42.733Z,18.91
2023-06-26T00:17:18.902Z,18.88
2023-06-26T00:19:55.982Z,18.86
2023-06-26T00:22:30.633Z,18.84
2023-06-26T00:25:05.677Z,18.83
2023-06-26T00:27:40.884Z,18.81
2023-06-26T00:30:17.693Z,18.79
2023-06-26T00:32:52.924Z,18.78
2023-06-26T00:35:26.991Z,18.76
2023-06-26T00:38:01.713Z,18.74
2023-06-26T00:40:36.105Z,18.66
2023-06-26T00:43:09.981Z,18.62
2023-06-26T00:45:43.546Z,18.57
2023-06-26T00:48:20.584Z,18.56
2023-06-26T00:50:56.632Z,18.55
2023-06-26T00:53:33.449Z,18.54
2023-06-26T00:56:09.551Z,18.52
2023-06-26T00:58:43.129Z,18.50
2023-06-26T01:01:18.797Z,18.50
2023-06-26T01:03:57.873Z,18.47
2023-06-26T01:06:38.020Z,18.44
2023-06-26T01:09:17.104Z,18.42
2023-06-26T01:11:53.274Z,18.38
2023-06-26T01:14:31.540Z,18.36
2023-06-26T01:17:13.220Z,18.34
2023-06-26T01:19:49.977Z,18.31
2023-06-26T01:22:34.639Z,18.29
2023-06-26T01:25:24.612Z,18.25
2023-06-26T01:28:00.996Z,18.21
2023-06-26T01:30:48.376Z,18.19
2023-06-26T01:33:23.822Z,18.17
2023-06-26T01:36:00.605Z,18.15
2023-06-26T01:38:35.987Z,18.13
2023-06-26T01:41:13.904Z,18.10
2023-06-26T01:44:10.777Z,18.08
2023-06-26T01:47:01.684Z,18.02
2023-06-26T01:49:50.591Z,17.98
2023-06-26T01:52:31.574Z,17.95
2023-06-26T01:55:12.307Z,17.84
2023-06-26T01:57:49.414Z,17.77
2023-06-26T02:00:25.884Z,17.74
2023-06-26T02:03:00.709Z,17.68
2023-06-26T02:05:36.694Z,17.65
2023-06-26T02:08:11.915Z,17.62
2023-06-26T02:10:47.004Z,17.58
2023-06-26T02:13:24.968Z,17.53
2023-06-26T02:16:00.241Z,17.49
2023-06-26T02:18:37.578Z,17.46
2023-06-26T02:21:12.117Z,17.42
2023-06-26T02:23:46.988Z,17.40
2023-06-26T02:26:23.983Z,17.37
2023-06-26T02:28:57.317Z,17.35
2023-06-26T02:31:30.873Z,17.31
2023-06-26T02:34:04.400Z,17.27
2023-06-26T02:36:39.489Z,17.25
2023-06-26T02:39:13.041Z,17.24
2023-06-26T02:41:46.853Z,17.22
2023-06-26T02:44:22.434Z,17.21
2023-06-26T02:46:58.141Z,17.20
2023-06-26T02:49:34.839Z,17.19
2023-06-26T02:52:10.148Z,17.17
2023-06-26T02:54:44.673Z,17.17
2023-06-26T02:57:18.869Z,17.17
2023-06-26T02:59:52.798Z,17.17
2023-06-26T03:02:27.573Z,17.16
2023-06-26T03:05:05.611Z,17.16
2023-06-26T03:07:41.685Z,17.16
2023-06-26T03:10:16.254Z,17.15
2023-06-26T03:12:51.462Z,17.14
2023-06-26T03:15:27.016Z,17.12
2023-06-26T03:18:02.385Z,17.08
2023-06-26T03:20:39.567Z,17.03
2023-06-26T03:23:14.871Z,17.04
2023-06-26T03:25:49.506Z,17.03
2023-06-26T03:28:34.259Z,17.01
2023-06-26T03:31:10.758Z,17.00
2023-06-26T03:33:44.743Z,16.98
2023-06-26T03:36:18.853Z,16.98
2023-06-26T03:38:58.096Z,16.99
2023-06-26T03:41:34.549Z,17.02
2023-06-26T03:44:09.021Z,17.06
2023-06-26T03:46:51.813Z,17.11
2023-06-26T03:49:26.433Z,17.18
2023-06-26T03:52:00.437Z,17.24
2023-06-26T03:54:37.713Z,17.32
2023-06-26T03:57:12.330Z,17.38
2023-06-26T03:59:54.416Z,17.46
2023-06-26T04:02:30.560Z,17.52
2023-06-26T04:05:05.262Z,17.59
2023-06-26T04:07:42.677Z,17.69
2023-06-26T04:10:17.842Z,17.78
2023-06-26T04:12:54.334Z,17.88
2023-06-26T04:15:29.497Z,17.98
2023-06-26T04:18:06.832Z,18.02
2023-06-26T04:20:46.473Z,18.12
2023-06-26T04:23:20.832Z,18.23
2023-06-26T04:25:55.009Z,18.31
2023-06-26T04:28:31.675Z,18.39
2023-06-26T04:31:05.912Z,18.53
2023-06-26T04:33:43.347Z,18.67
2023-06-26T04:36:19.010Z,18.80
2023-06-26T04:38:54.427Z,18.95
2023-06-26T04:41:30.480Z,19.06
2023-06-26T04:44:07.177Z,19.20
2023-06-26T04:46:53.169Z,19.32
2023-06-26T04:49:31.789Z,19.45
2023-06-26T04:52:06.777Z,19.58
2023-06-26T04:54:42.041Z,19.69
2023-06-26T04:57:19.755Z,19.82
2023-06-26T04:59:56.027Z,19.94
2023-06-26T05:02:31.118Z,20.05
2023-06-26T05:05:06.410Z,20.15
2023-06-26T05:07:39.852Z,20.26
2023-06-26T05:10:16.298Z,20.36
2023-06-26T05:12:50.830Z,20.36
2023-06-26T05:15:25.160Z,20.46
2023-06-26T05:17:59.972Z,20.60
2023-06-26T05:20:34.686Z,20.71
2023-06-26T05:23:10.411Z,20.81
2023-06-26T05:25:45.964Z,20.92
2023-06-26T05:28:21.541Z,21.02
2023-06-26T05:30:57.534Z,21.11
2023-06-26T05:33:33.131Z,21.20
2023-06-26T05:36:13.831Z,21.29
2023-06-26T05:38:50.346Z,21.38
2023-06-26T05:41:26.157Z,21.44
2023-06-26T05:44:03.881Z,21.46
2023-06-26T05:46:37.688Z,21.50
2023-06-26T05:49:15.273Z,21.62
2023-06-26T05:51:51.337Z,21.74
2023-06-26T05:54:28.608Z,21.84
2023-06-26T05:57:06.456Z,21.94
2023-06-26T05:59:43.440Z,22.04
2023-06-26T06:02:19.524Z,22.11
2023-06-26T06:04:55.810Z,22.11
2023-06-26T06:07:29.599Z,22.17
2023-06-26T06:10:05.796Z,22.27
2023-06-26T06:12:40.077Z,22.34
2023-06-26T06:15:14.594Z,22.39
2023-06-26T06:17:49.071Z,22.44
2023-06-26T06:20:24.417Z,22.53
2023-06-26T06:22:57.758Z,22.65
2023-06-26T06:25:33.262Z,22.77
2023-06-26T06:28:08.696Z,22.91
2023-06-26T06:30:46.207Z,23.04
2023-06-26T06:33:21.856Z,23.22
2023-06-26T06:35:57.422Z,23.47
2023-06-26T06:38:35.834Z,23.71
2023-06-26T06:41:09.777Z,24.03
2023-06-26T06:43:44.152Z,24.43
2023-06-26T06:46:20.635Z,24.77
2023-06-26T06:48:59.426Z,25.02
2023-06-26T06:51:34.792Z,25.18
2023-06-26T06:54:11.299Z,25.24
2023-06-26T06:56:47.751Z,25.28
2023-06-26T06:59:21.917Z,25.31
2023-06-26T07:01:58.402Z,25.31
2023-06-26T07:04:32.961Z,25.28
2023-06-26T07:07:10.132Z,25.21
2023-06-26T07:09:44.807Z,25.16
2023-06-26T07:12:19.544Z,25.08
2023-06-26T07:14:56.015Z,25.02
2023-06-26T07:17:30.755Z,24.99
2023-06-26T07:20:09.973Z,24.92
2023-06-26T07:22:46.344Z,24.85
2023-06-26T07:25:20.362Z,24.85
2023-06-26T07:27:56.186Z,24.84
2023-06-26T07:30:31.508Z,24.79
2023-06-26T07:33:06.532Z,24.76
2023-06-26T07:35:42.712Z,24.72
2023-06-26T07:38:16.972Z,24.73
2023-06-26T07:40:51.725Z,24.68
2023-06-26T07:43:27.517Z,24.60
2023-06-26T07:46:03.575Z,24.62
2023-06-26T07:48:38.090Z,24.61
2023-06-26T07:51:14.741Z,24.62
2023-06-26T07:53:48.552Z,24.62
2023-06-26T07:56:23.119Z,24.66
2023-06-26T07:59:03.095Z,24.67
2023-06-26T08:01:39.770Z,24.69
2023-06-26T08:04:15.678Z,24.73
2023-06-26T08:06:50.791Z,24.79
2023-06-26T08:09:27.502Z,24.83
2023-06-26T08:12:02.667Z,24.86
2023-06-26T08:14:40.203Z,24.93
2023-06-26T08:17:16.683Z,25.01
2023-06-26T08:19:53.905Z,25.03
2023-06-26T08:22:28.847Z,25.05
2023-06-26T08:25:05.996Z,25.13
2023-06-26T08:27:41.391Z,25.19
2023-06-26T08:30:16.815Z,25.24
2023-06-26T08:32:52.941Z,25.29
2023-06-26T08:35:27.270Z,25.38
2023-06-26T08:38:03.035Z,25.46
2023-06-26T08:40:38.566Z,25.53
2023-06-26T08:43:13.470Z,25.58
2023-06-26T08:45:52.686Z,25.57
2023-06-26T08:48:28.252Z,25.56
2023-06-26T08:51:08.764Z,25.46
2023-06-26T08:53:52.505Z,25.48
2023-06-26T08:56:29.178Z,25.55
2023-06-26T08:59:04.395Z,25.61
2023-06-26T09:01:39.768Z,25.65
2023-06-26T09:04:15.673Z,25.72
2023-06-26T09:06:51.454Z,25.77
2023-06-26T09:09:25.598Z,25.79
2023-06-26T09:12:01.089Z,25.79
2023-06-26T09:14:37.855Z,25.85
2023-06-26T09:17:11.182Z,25.95
2023-06-26T09:19:48.780Z,26.04
2023-06-26T09:22:25.236Z,26.08
2023-06-26T09:25:01.486Z,26.15
2023-06-26T09:27:37.646Z,26.23
2023-06-26T09:30:20.682Z,26.18
2023-06-26T09:32:57.383Z,26.11
2023-06-26T09:35:37.660Z,26.14
2023-06-26T09:38:13.148Z,26.22
2023-06-26T09:40:50.106Z,26.27
2023-06-26T09:43:24.674Z,26.36
2023-06-26T09:46:03.912Z,26.45
2023-06-26T09:48:40.862Z,26.52
2023-06-26T09:51:22.442Z,26.56
2023-06-26T09:53:57.097Z,26.59
2023-06-26T09:56:33.654Z,26.67
2023-06-26T09:59:10.996Z,26.72
2023-06-26T10:01:49.894Z,26.79
2023-06-26T10:04:26.534Z,26.86
2023-06-26T10:07:03.627Z,26.90
2023-06-26T10:09:40.238Z,26.87
2023-06-26T10:12:19.680Z,26.84
2023-06-26T10:14:56.549Z,26.88
2023-06-26T10:17:36.143Z,26.90
2023-06-26T10:20:16.792Z,26.84
2023-06-26T10:22:57.946Z,26.79
2023-06-26T10:25:38.738Z,26.77
2023-06-26T10:28:15.907Z,26.79
2023-06-26T10:30:53.519Z,26.82
2023-06-26T10:33:31.447Z,26.73
2023-06-26T10:36:20.615Z,26.69
2023-06-26T10:38:57.925Z,26.71
2023-06-26T10:42:00.361Z,26.77
2023-06-26T10:44:47.100Z,26.85
2023-06-26T10:50:34.445Z,27.04
2023-06-26T10:53:20.918Z,27.00
2023-06-26T10:56:00.579Z,27.06
2023-06-26T10:58:48.244Z,27.07
2023-06-26T11:01:27.940Z,27.11
2023-06-26T11:04:17.197Z,27.15
2023-06-26T11:06:51.681Z,27.23
2023-06-26T11:09:29.173Z,27.32
2023-06-26T11:12:09.765Z,27.39
2023-06-26T11:14:45.265Z,27.43
2023-06-26T11:17:24.765Z,27.46
2023-06-26T11:20:02.330Z,27.50
2023-06-26T11:22:40.105Z,27.54
2023-06-26T11:25:15.421Z,27.59
2023-06-26T11:27:51.930Z,27.64
2023-06-26T11:30:30.092Z,27.71
2023-06-26T11:33:12.639Z,27.82
2023-06-26T11:35:47.264Z,27.89
2023-06-26T11:38:22.719Z,27.91
2023-06-26T11:41:01.794Z,27.97
2023-06-26T11:43:37.221Z,28.04
2023-06-26T11:46:11.858Z,28.09
2023-06-26T11:48:45.551Z,28.13
2023-06-26T11:51:21.423Z,28.16
2023-06-26T11:53:56.492Z,28.19
2023-06-26T11:56:31.927Z,28.26
2023-06-26T11:59:12.225Z,28.31
2023-06-26T12:01:50.807Z,28.34
2023-06-26T12:04:28.654Z,28.39
2023-06-26T12:07:05.877Z,28.46
2023-06-26T12:09:45.382Z,28.51
2023-06-26T12:12:21.514Z,28.53
2023-06-26T12:14:58.073Z,28.54
2023-06-26T12:17:32.647Z,28.53
2023-06-26T12:20:11.078Z,28.53
2023-06-26T12:22:47.350Z,28.61
2023-06-26T12:25:27.040Z,28.68
2023-06-26T12:28:01.486Z,28.76
2023-06-26T12:30:35.138Z,28.82
2023-06-26T12:33:18.976Z,28.88
2023-06-26T12:35:58.358Z,28.94
2023-06-26T12:38:39.794Z,28.93
2023-06-26T12:41:22.452Z,28.90
2023-06-26T12:44:01.735Z,28.91
2023-06-26T12:46:42.185Z,28.93
2023-06-26T12:52:16.622Z,28.88
2023-06-26T12:54:55.221Z,28.96
2023-06-26T12:57:30.781Z,29.02
2023-06-26T13:00:07.540Z,29.01
2023-06-26T13:02:43.926Z,29.04
2023-06-26T13:05:18.736Z,29.11
2023-06-26T13:07:57.126Z,29.16
2023-06-26T13:10:33.086Z,29.20
2023-06-26T13:13:08.518Z,29.23
2023-06-26T13:15:43.647Z,29.28
2023-06-26T13:18:17.325Z,29.33
2023-06-26T13:20:51.115Z,29.34
2023-06-26T13:23:29.974Z,29.33
2023-06-26T13:26:05.407Z,29.31
2023-06-26T13:28:41.142Z,29.33
2023-06-26T13:31:15.713Z,29.37
2023-06-26T13:33:56.119Z,29.37
2023-06-26T13:36:31.588Z,29.37
2023-06-26T13:39:05.606Z,29.38
2023-06-26T13:41:40.833Z,29.36
2023-06-26T13:44:31.461Z,29.35
2023-06-26T13:47:10.045Z,29.33
2023-06-26T13:49:49.443Z,29.33
2023-06-26T13:52:24.057Z,29.35
2023-06-26T13:54:58.988Z,29.38
2023-06-26T13:57:34.514Z,29.39
2023-06-26T14:00:17.289Z,29.41
2023-06-26T14:02:57.869Z,29.37
2023-06-26T14:05:35.289Z,29.28
2023-06-26T14:08:12.218Z,29.25
2023-06-26T14:10:49.864Z,29.26
2023-06-26T14:13:26.498Z,29.30
2023-06-26T14:16:02.771Z,29.33
2023-06-26T14:18:38.275Z,29.34
2023-06-26T14:21:11.980Z,29.35
2023-06-26T14:23:48.115Z,29.38
2023-06-26T14:26:22.667Z,29.42
2023-06-26T14:28:57.436Z,29.46
2023-06-26T14:31:32.242Z,29.47
2023-06-26T14:34:09.294Z,29.43
2023-06-26T14:36:44.688Z,29.42
2023-06-26T14:39:19.907Z,29.43
2023-06-26T14:41:55.436Z,29.47
2023-06-26T14:44:30.757Z,29.53
2023-06-26T14:47:09.784Z,29.59
2023-06-26T14:49:45.499Z,29.64
2023-06-26T14:52:21.392Z,29.67
2023-06-26T14:54:57.162Z,29.71
2023-06-26T14:57:32.040Z,29.73
2023-06-26T15:00:08.284Z,29.75
2023-06-26T15:02:46.504Z,29.78
2023-06-26T15:05:23.907Z,29.80
2023-06-26T15:08:01.475Z,29.76
2023-06-26T15:10:43.073Z,29.73
2023-06-26T15:13:18.568Z,29.75
2023-06-26T15:15:54.242Z,29.76
2023-06-26T15:18:34.020Z,29.78
2023-06-26T15:21:13.323Z,29.85
2023-06-26T15:23:49.783Z,29.86
2023-06-26T15:26:25.976Z,29.85
2023-06-26T15:28:58.923Z,29.88
2023-06-26T15:31:35.058Z,29.95
2023-06-26T15:34:08.982Z,30.02
2023-06-26T15:36:46.450Z,30.08
2023-06-26T15:39:21.036Z,30.13
2023-06-26T15:41:55.064Z,30.15
2023-06-26T15:44:29.375Z,30.14
2023-06-26T15:47:06.181Z,30.10
2023-06-26T15:49:45.976Z,30.04
2023-06-26T15:52:21.836Z,29.99
2023-06-26T15:54:57.789Z,29.98
2023-06-26T15:57:36.610Z,30.01
2023-06-26T16:00:14.793Z,30.07
2023-06-26T16:02:51.845Z,30.14
2023-06-26T16:05:27.388Z,30.18
2023-06-26T16:08:03.482Z,30.19
2023-06-26T16:10:39.489Z,30.22
2023-06-26T16:13:20.992Z,30.24
2023-06-26T16:16:00.353Z,30.24
2023-06-26T16:18:35.039Z,30.23
2023-06-26T16:21:15.715Z,30.22
2023-06-26T16:23:49.670Z,30.21
2023-06-26T16:26:23.652Z,30.18
2023-06-26T16:28:58.081Z,30.14
2023-06-26T16:31:32.133Z,30.10
2023-06-26T16:34:09.484Z,30.07
2023-06-26T16:36:44.897Z,29.98
2023-06-26T16:39:21.344Z,29.86
2023-06-26T16:41:56.694Z,29.75
2023-06-26T16:44:30.554Z,29.66
2023-06-26T16:47:11.129Z,29.58
2023-06-26T16:49:45.957Z,29.48
2023-06-26T16:52:19.065Z,29.40
2023-06-26T16:54:54.526Z,29.32
2023-06-26T16:57:31.699Z,29.24
2023-06-26T17:00:06.396Z,29.17
2023-06-26T17:02:42.963Z,29.08
2023-06-26T17:05:17.376Z,28.99
2023-06-26T17:07:52.848Z,28.87
2023-06-26T17:10:27.644Z,28.78
2023-06-26T17:13:01.794Z,28.70
2023-06-26T17:15:34.789Z,28.60
2023-06-26T17:18:11.748Z,28.49
2023-06-26T17:20:48.715Z,28.37
2023-06-26T17:23:24.641Z,28.24
2023-06-26T17:26:02.029Z,28.14
2023-06-26T17:28:40.428Z,28.03
2023-06-26T17:31:15.007Z,27.93
2023-06-26T17:33:51.819Z,27.83
2023-06-26T17:36:27.797Z,27.74
2023-06-26T17:39:02.636Z,27.64
2023-06-26T17:41:37.789Z,27.56
2023-06-26T17:44:14.411Z,27.48
2023-06-26T17:46:52.134Z,27.42
2023-06-26T17:49:36.254Z,27.35
2023-06-26T17:52:11.847Z,27.28
2023-06-26T17:54:45.888Z,27.22
2023-06-26T17:57:20.257Z,27.15
2023-06-26T17:59:57.463Z,27.08
2023-06-26T18:02:33.370Z,27.00
2023-06-26T18:05:06.641Z,26.91
2023-06-26T18:07:58.035Z,26.84
2023-06-26T18:10:36.840Z,26.73
2023-06-26T18:13:12.764Z,26.65
2023-06-26T18:15:47.228Z,26.58
2023-06-26T18:18:19.921Z,26.52
2023-06-26T18:20:54.025Z,26.46
2023-06-26T18:23:28.971Z,26.39
2023-06-26T18:26:04.664Z,26.33
2023-06-26T18:28:41.308Z,26.27
2023-06-26T18:31:18.604Z,26.21
2023-06-26T18:33:53.542Z,26.16
2023-06-26T18:36:30.475Z,26.10
2023-06-26T18:39:06.385Z,26.04
2023-06-26T18:41:39.364Z,25.98
2023-06-26T18:44:13.434Z,25.92
2023-06-26T18:46:50.637Z,25.87
2023-06-26T18:49:26.189Z,25.81
2023-06-26T18:52:00.634Z,25.75
2023-06-26T18:54:34.799Z,25.70
2023-06-26T18:57:09.915Z,25.64
2023-06-26T18:59:44.484Z,25.58
2023-06-26T19:02:20.393Z,25.52
2023-06-26T19:04:56.123Z,25.47
2023-06-26T19:07:32.917Z,25.41
2023-06-26T19:10:13.084Z,25.36
2023-06-26T19:12:48.314Z,25.31
2023-06-26T19:15:26.358Z,25.26
2023-06-26T19:18:01.280Z,25.22
2023-06-26T19:20:37.742Z,25.18
2023-06-26T19:23:12.601Z,25.15
2023-06-26T19:25:50.434Z,25.11
2023-06-26T19:28:24.649Z,25.08
2023-06-26T19:30:59.775Z,25.03
2023-06-26T19:33:38.065Z,25.00
2023-06-26T19:36:16.403Z,24.97
2023-06-26T19:38:53.227Z,24.94
2023-06-26T19:41:27.738Z,24.91
2023-06-26T19:44:03.301Z,24.88
2023-06-26T19:46:40.986Z,24.85
2023-06-26T19:49:15.474Z,24.82
2023-06-26T19:51:49.824Z,24.80
2023-06-26T19:54:25.836Z,24.79
2023-06-26T19:57:01.145Z,24.78
2023-06-26T19:59:34.618Z,24.76
2023-06-26T20:02:10.470Z,24.75
2023-06-26T20:04:47.545Z,24.74
2023-06-26T20:07:21.479Z,24.72
2023-06-26T20:10:00.047Z,24.71
2023-06-26T20:12:34.857Z,24.69
2023-06-26T20:15:12.078Z,24.68
2023-06-26T20:17:46.861Z,24.66
2023-06-26T20:20:21.919Z,24.64
2023-06-26T20:22:55.492Z,24.63
2023-06-26T20:25:31.011Z,24.61
2023-06-26T20:28:06.088Z,24.59
2023-06-26T20:30:40.719Z,24.57
2023-06-26T20:33:18.109Z,24.56
2023-06-26T20:35:51.852Z,24.55
2023-06-26T20:38:26.222Z,24.54
2023-06-26T20:41:01.340Z,24.53
2023-06-26T20:43:37.578Z,24.54
2023-06-26T20:46:16.780Z,24.54
2023-06-26T20:48:53.209Z,24.53
2023-06-26T20:51:29.166Z,24.53
2023-06-26T20:54:08.688Z,24.46
2023-06-26T20:56:43.492Z,24.27
2023-06-26T20:59:18.364Z,23.89
2023-06-26T21:01:58.694Z,23.45
2023-06-26T21:04:36.557Z,22.91
2023-06-26T21:07:14.812Z,22.47
2023-06-26T21:09:49.334Z,22.15
2023-06-26T21:12:25.215Z,21.88
2023-06-26T21:15:00.049Z,21.66
2023-06-26T21:17:40.160Z,21.45
2023-06-26T21:20:15.947Z,21.21
2023-06-26T21:22:51.121Z,21.06
2023-06-26T21:25:26.576Z,20.97
2023-06-26T21:28:02.821Z,20.94
2023-06-26T21:30:39.005Z,20.82
2023-06-26T21:33:18.935Z,20.64
2023-06-26T21:35:54.035Z,20.59
2023-06-26T21:38:28.819Z,20.66
2023-06-26T21:41:07.162Z,20.66
2023-06-26T21:43:54.867Z,20.60
2023-06-26T21:46:31.687Z,20.49
2023-06-26T21:49:14.397Z,20.40
2023-06-26T21:51:55.382Z,20.37
2023-06-26T21:54:34.087Z,20.40
2023-06-26T21:57:13.952Z,20.46
2023-06-26T21:59:52.631Z,20.51
2023-06-26T22:02:28.226Z,20.53
2023-06-26T22:05:10.303Z,20.55
2023-06-26T22:07:55.731Z,20.56
2023-06-26T22:10:32.388Z,20.56
2023-06-26T22:13:19.277Z,20.56
2023-06-26T22:15:56.272Z,20.58
2023-06-26T22:18:32.956Z,20.59
2023-06-26T22:21:09.086Z,20.58
2023-06-26T22:23:48.635Z,20.58
2023-06-26T22:26:24.742Z,20.56
2023-06-26T22:29:03.288Z,20.57
2023-06-26T22:31:46.009Z,20.57
2023-06-26T22:34:23.284Z,20.57
2023-06-26T22:37:01.038Z,20.56
2023-06-26T22:39:35.438Z,20.52
2023-06-26T22:42:14.911Z,20.49
2023-06-26T22:44:50.939Z,20.44
2023-06-26T22:47:29.896Z,20.38
2023-06-26T22:50:07.361Z,20.32
2023-06-26T22:52:48.117Z,20.28
2023-06-26T22:55:24.513Z,20.22
2023-06-26T22:58:01.007Z,20.18
2023-06-26T23:00:36.644Z,20.13
2023-06-26T23:03:13.222Z,20.11
2023-06-26T23:05:58.656Z,20.07
2023-06-26T23:08:36.557Z,20.01
2023-06-26T23:11:13.474Z,19.99
2023-06-26T23:13:49.671Z,19.98
2023-06-26T23:16:27.547Z,19.96
2023-06-26T23:19:04.302Z,19.91
2023-06-26T23:21:39.481Z,19.83
2023-06-26T23:24:15.128Z,19.78
2023-06-26T23:26:51.067Z,19.75
2023-06-26T23:29:25.721Z,19.71
2023-06-26T23:32:01.743Z,19.69
2023-06-26T23:34:40.862Z,19.65
2023-06-26T23:37:16.769Z,19.62
2023-06-26T23:39:52.264Z,19.59
2023-06-26T23:42:28.803Z,19.56
2023-06-26T23:45:04.228Z,19.54
2023-06-26T23:47:40.290Z,19.54
2023-06-26T23:50:18.973Z,19.53
2023-06-26T23:52:54.513Z,19.51
2023-06-26T23:55:30.880Z,19.48
2023-06-26T23:58:07.097Z,19.46
